sensor_id;sensor_type;location;lat;lon;timestamp;P1;durP1;ratioP1;P2;durP2;ratioP2
35578;SDS011;21687;48.900;9.188;2023-05-10T00:01:38;1.60;;;1.50;;
35578;SDS011;21687;48.900;9.188;2023-05-10T00:04:05;2.80;;;1.37;;
35578;SDS011;21687;48.900;9.188;2023-05-10T00:09:54;0.77;;;0.77;;
35578;SDS011;21687;48.900;9.188;2023-05-10T00:12:20;0.80;;;0.80;;
35578;SDS011;21687;48.900;9.188;2023-05-10T00:14:47;2.87;;;0.77;;
35578;SDS011;21687;48.900;9.188;2023-05-10T00:17:13;0.50;;;0.50;;
35578;SDS011;21687;48.900;9.188;2023-05-10T00:19:39;0.47;;;0.47;;
35578;SDS011;21687;48.900;9.188;2023-05-10T00:22:06;0.67;;;0.67;;
35578;SDS011;21687;48.900;9.188;2023-05-10T00:24:32;1.00;;;0.90;;
35578;SDS011;21687;48.900;9.188;2023-05-10T00:26:58;0.70;;;0.70;;
35578;SDS011;21687;48.900;9.188;2023-05-10T00:29:25;0.77;;;0.70;;
35578;SDS011;21687;48.900;9.188;2023-05-10T00:31:53;1.23;;;0.70;;
35578;SDS011;21687;48.900;9.188;2023-05-10T00:34:19;2.07;;;1.23;;
35578;SDS011;21687;48.900;9.188;2023-05-10T00:36:45;0.57;;;0.57;;
35578;SDS011;21687;48.900;9.188;2023-05-10T00:39:12;0.90;;;0.90;;
35578;SDS011;21687;48.900;9.188;2023-05-10T00:41:38;0.70;;;0.70;;
35578;SDS011;21687;48.900;9.188;2023-05-10T00:44:04;0.73;;;0.73;;
35578;SDS011;21687;48.900;9.188;2023-05-10T00:46:30;0.70;;;0.70;;
35578;SDS011;21687;48.900;9.188;2023-05-10T00:48:57;0.93;;;0.93;;
35578;SDS011;21687;48.900;9.188;2023-05-10T00:51:23;0.80;;;0.80;;
35578;SDS011;21687;48.900;9.188;2023-05-10T00:53:50;1.03;;;0.97;;
35578;SDS011;21687;48.900;9.188;2023-05-10T00:56:17;2.40;;;1.03;;
35578;SDS011;21687;48.900;9.188;2023-05-10T00:58:45;0.90;;;0.90;;
35578;SDS011;21687;48.900;9.188;2023-05-10T01:01:11;0.80;;;0.80;;
35578;SDS011;21687;48.900;9.188;2023-05-10T01:03:38;2.87;;;0.90;;
35578;SDS011;21687;48.900;9.188;2023-05-10T01:06:05;1.10;;;1.10;;
35578;SDS011;21687;48.900;9.188;2023-05-10T01:08:32;1.30;;;1.20;;
35578;SDS011;21687;48.900;9.188;2023-05-10T01:10:58;1.27;;;1.00;;
35578;SDS011;21687;48.900;9.188;2023-05-10T01:13:47;1.20;;;1.10;;
35578;SDS011;21687;48.900;9.188;2023-05-10T01:16:15;1.50;;;1.40;;
35578;SDS011;21687;48.900;9.188;2023-05-10T01:18:42;1.50;;;1.40;;
35578;SDS011;21687;48.900;9.188;2023-05-10T01:32:30;2.00;;;1.90;;
35578;SDS011;21687;48.900;9.188;2023-05-10T01:35:00;2.00;;;1.90;;
35578;SDS011;21687;48.900;9.188;2023-05-10T01:37:46;1.97;;;1.87;;
35578;SDS011;21687;48.900;9.188;2023-05-10T01:43:05;4.40;;;2.10;;
35578;SDS011;21687;48.900;9.188;2023-05-10T01:45:37;2.00;;;1.90;;
35578;SDS011;21687;48.900;9.188;2023-05-10T01:48:36;2.10;;;2.00;;
35578;SDS011;21687;48.900;9.188;2023-05-10T01:51:07;2.30;;;2.10;;
35578;SDS011;21687;48.900;9.188;2023-05-10T01:53:35;3.60;;;2.00;;
35578;SDS011;21687;48.900;9.188;2023-05-10T01:56:04;2.07;;;1.97;;
35578;SDS011;21687;48.900;9.188;2023-05-10T01:58:32;3.07;;;2.20;;
35578;SDS011;21687;48.900;9.188;2023-05-10T02:01:01;1.90;;;1.80;;
35578;SDS011;21687;48.900;9.188;2023-05-10T02:03:29;2.00;;;1.90;;
35578;SDS011;21687;48.900;9.188;2023-05-10T02:05:57;2.20;;;2.10;;
35578;SDS011;21687;48.900;9.188;2023-05-10T02:08:24;2.40;;;2.20;;
35578;SDS011;21687;48.900;9.188;2023-05-10T02:10:53;2.20;;;2.00;;
35578;SDS011;21687;48.900;9.188;2023-05-10T02:13:21;3.73;;;2.00;;
35578;SDS011;21687;48.900;9.188;2023-05-10T02:15:51;2.60;;;2.40;;
35578;SDS011;21687;48.900;9.188;2023-05-10T02:18:18;1.97;;;1.87;;
35578;SDS011;21687;48.900;9.188;2023-05-10T02:20:45;2.00;;;1.90;;
35578;SDS011;21687;48.900;9.188;2023-05-10T02:23:12;3.67;;;2.47;;
35578;SDS011;21687;48.900;9.188;2023-05-10T02:25:40;2.37;;;2.17;;
35578;SDS011;21687;48.900;9.188;2023-05-10T02:28:08;3.10;;;2.20;;
35578;SDS011;21687;48.900;9.188;2023-05-10T02:30:36;2.60;;;2.40;;
35578;SDS011;21687;48.900;9.188;2023-05-10T02:33:04;2.40;;;2.30;;
35578;SDS011;21687;48.900;9.188;2023-05-10T02:35:32;2.60;;;2.40;;
35578;SDS011;21687;48.900;9.188;2023-05-10T02:37:59;2.40;;;2.20;;
35578;SDS011;21687;48.900;9.188;2023-05-10T02:40:26;3.40;;;2.40;;
35578;SDS011;21687;48.900;9.188;2023-05-10T02:42:54;6.03;;;2.30;;
35578;SDS011;21687;48.900;9.188;2023-05-10T02:45:23;2.37;;;2.27;;
35578;SDS011;21687;48.900;9.188;2023-05-10T02:47:53;2.60;;;2.40;;
35578;SDS011;21687;48.900;9.188;2023-05-10T02:50:19;2.60;;;2.40;;
35578;SDS011;21687;48.900;9.188;2023-05-10T02:52:47;3.03;;;2.73;;
35578;SDS011;21687;48.900;9.188;2023-05-10T02:55:19;2.87;;;2.67;;
35578;SDS011;21687;48.900;9.188;2023-05-10T02:57:57;2.87;;;2.63;;
35578;SDS011;21687;48.900;9.188;2023-05-10T03:00:25;2.73;;;2.53;;
35578;SDS011;21687;48.900;9.188;2023-05-10T03:02:52;2.80;;;2.60;;
35578;SDS011;21687;48.900;9.188;2023-05-10T03:05:18;2.63;;;2.43;;
35578;SDS011;21687;48.900;9.188;2023-05-10T03:07:45;3.73;;;3.43;;
35578;SDS011;21687;48.900;9.188;2023-05-10T03:10:12;3.40;;;3.03;;
35578;SDS011;21687;48.900;9.188;2023-05-10T03:18:34;3.00;;;2.80;;
35578;SDS011;21687;48.900;9.188;2023-05-10T03:21:10;3.20;;;3.00;;
35578;SDS011;21687;48.900;9.188;2023-05-10T03:26:22;3.00;;;2.80;;
35578;SDS011;21687;48.900;9.188;2023-05-10T03:28:51;3.17;;;2.93;;
35578;SDS011;21687;48.900;9.188;2023-05-10T03:31:19;3.23;;;2.93;;
35578;SDS011;21687;48.900;9.188;2023-05-10T03:33:49;5.60;;;3.20;;
35578;SDS011;21687;48.900;9.188;2023-05-10T03:36:16;8.27;;;3.40;;
35578;SDS011;21687;48.900;9.188;2023-05-10T03:38:43;3.47;;;3.17;;
35578;SDS011;21687;48.900;9.188;2023-05-10T03:41:09;3.30;;;3.00;;
35578;SDS011;21687;48.900;9.188;2023-05-10T03:43:35;3.33;;;3.07;;
35578;SDS011;21687;48.900;9.188;2023-05-10T03:46:05;4.67;;;3.40;;
35578;SDS011;21687;48.900;9.188;2023-05-10T03:48:31;4.50;;;4.10;;
35578;SDS011;21687;48.900;9.188;2023-05-10T03:50:58;4.60;;;4.20;;
35578;SDS011;21687;48.900;9.188;2023-05-10T03:53:25;4.07;;;3.77;;
35578;SDS011;21687;48.900;9.188;2023-05-10T03:55:52;4.10;;;3.80;;
35578;SDS011;21687;48.900;9.188;2023-05-10T03:58:18;4.00;;;3.70;;
35578;SDS011;21687;48.900;9.188;2023-05-10T04:00:44;4.00;;;3.60;;
35578;SDS011;21687;48.900;9.188;2023-05-10T04:03:11;4.10;;;3.70;;
35578;SDS011;21687;48.900;9.188;2023-05-10T04:05:38;4.10;;;3.80;;
35578;SDS011;21687;48.900;9.188;2023-05-10T04:08:05;4.90;;;3.80;;
35578;SDS011;21687;48.900;9.188;2023-05-10T04:10:31;4.30;;;4.00;;
35578;SDS011;21687;48.900;9.188;2023-05-10T04:12:58;4.90;;;4.40;;
35578;SDS011;21687;48.900;9.188;2023-05-10T04:15:24;4.17;;;3.83;;
35578;SDS011;21687;48.900;9.188;2023-05-10T04:17:50;3.97;;;3.67;;
35578;SDS011;21687;48.900;9.188;2023-05-10T04:20:17;5.13;;;3.90;;
35578;SDS011;21687;48.900;9.188;2023-05-10T04:22:43;4.77;;;4.37;;
35578;SDS011;21687;48.900;9.188;2023-05-10T04:25:09;4.80;;;3.80;;
35578;SDS011;21687;48.900;9.188;2023-05-10T04:27:36;3.80;;;3.50;;
35578;SDS011;21687;48.900;9.188;2023-05-10T04:30:02;3.93;;;3.30;;
35578;SDS011;21687;48.900;9.188;2023-05-10T04:32:29;3.90;;;3.60;;
35578;SDS011;21687;48.900;9.188;2023-05-10T04:34:55;4.80;;;3.40;;
35578;SDS011;21687;48.900;9.188;2023-05-10T04:37:22;3.67;;;3.23;;
35578;SDS011;21687;48.900;9.188;2023-05-10T04:39:48;3.60;;;3.30;;
35578;SDS011;21687;48.900;9.188;2023-05-10T04:42:15;3.17;;;2.90;;
35578;SDS011;21687;48.900;9.188;2023-05-10T04:44:41;5.07;;;3.27;;
35578;SDS011;21687;48.900;9.188;2023-05-10T04:47:07;3.33;;;3.07;;
35578;SDS011;21687;48.900;9.188;2023-05-10T04:49:34;2.90;;;2.60;;
35578;SDS011;21687;48.900;9.188;2023-05-10T04:52:00;3.00;;;2.70;;
35578;SDS011;21687;48.900;9.188;2023-05-10T04:54:26;2.83;;;2.63;;
35578;SDS011;21687;48.900;9.188;2023-05-10T04:56:52;3.67;;;3.10;;
35578;SDS011;21687;48.900;9.188;2023-05-10T04:59:19;2.77;;;2.57;;
35578;SDS011;21687;48.900;9.188;2023-05-10T05:01:45;3.30;;;3.00;;
35578;SDS011;21687;48.900;9.188;2023-05-10T05:04:11;3.07;;;2.87;;
35578;SDS011;21687;48.900;9.188;2023-05-10T05:06:39;3.63;;;2.87;;
35578;SDS011;21687;48.900;9.188;2023-05-10T05:09:05;2.80;;;2.60;;
35578;SDS011;21687;48.900;9.188;2023-05-10T05:11:32;3.87;;;3.00;;
35578;SDS011;21687;48.900;9.188;2023-05-10T05:13:58;3.37;;;3.07;;
35578;SDS011;21687;48.900;9.188;2023-05-10T05:16:24;3.20;;;2.90;;
35578;SDS011;21687;48.900;9.188;2023-05-10T05:18:51;3.40;;;3.00;;
35578;SDS011;21687;48.900;9.188;2023-05-10T05:21:18;5.27;;;4.33;;
35578;SDS011;21687;48.900;9.188;2023-05-10T05:23:45;3.30;;;3.00;;
35578;SDS011;21687;48.900;9.188;2023-05-10T05:26:11;3.50;;;3.20;;
35578;SDS011;21687;48.900;9.188;2023-05-10T05:28:37;3.60;;;3.30;;
35578;SDS011;21687;48.900;9.188;2023-05-10T05:31:04;4.23;;;3.90;;
35578;SDS011;21687;48.900;9.188;2023-05-10T05:33:32;3.50;;;3.20;;
35578;SDS011;21687;48.900;9.188;2023-05-10T05:36:05;2.97;;;2.67;;
35578;SDS011;21687;48.900;9.188;2023-05-10T05:38:31;4.13;;;2.67;;
35578;SDS011;21687;48.900;9.188;2023-05-10T05:40:58;2.80;;;2.60;;
35578;SDS011;21687;48.900;9.188;2023-05-10T05:43:24;2.50;;;2.30;;
35578;SDS011;21687;48.900;9.188;2023-05-10T05:45:51;2.50;;;2.30;;
35578;SDS011;21687;48.900;9.188;2023-05-10T05:48:18;3.67;;;2.20;;
35578;SDS011;21687;48.900;9.188;2023-05-10T05:50:45;2.60;;;2.40;;
35578;SDS011;21687;48.900;9.188;2023-05-10T05:53:11;6.27;;;2.70;;
35578;SDS011;21687;48.900;9.188;2023-05-10T05:55:37;2.70;;;2.50;;
35578;SDS011;21687;48.900;9.188;2023-05-10T05:58:04;4.37;;;2.37;;
35578;SDS011;21687;48.900;9.188;2023-05-10T06:00:30;2.47;;;2.30;;
35578;SDS011;21687;48.900;9.188;2023-05-10T06:02:56;4.03;;;2.50;;
35578;SDS011;21687;48.900;9.188;2023-05-10T06:05:22;4.23;;;2.47;;
35578;SDS011;21687;48.900;9.188;2023-05-10T06:07:49;2.40;;;2.20;;
35578;SDS011;21687;48.900;9.188;2023-05-10T06:10:15;2.43;;;2.23;;
35578;SDS011;21687;48.900;9.188;2023-05-10T06:12:41;2.53;;;2.33;;
35578;SDS011;21687;48.900;9.188;2023-05-10T06:15:08;2.73;;;2.53;;
35578;SDS011;21687;48.900;9.188;2023-05-10T06:17:34;3.23;;;2.20;;
35578;SDS011;21687;48.900;9.188;2023-05-10T06:20:01;4.50;;;2.60;;
35578;SDS011;21687;48.900;9.188;2023-05-10T06:22:27;4.50;;;2.10;;
35578;SDS011;21687;48.900;9.188;2023-05-10T06:24:53;3.17;;;2.40;;
35578;SDS011;21687;48.900;9.188;2023-05-10T06:27:20;2.40;;;2.20;;
35578;SDS011;21687;48.900;9.188;2023-05-10T06:29:46;2.70;;;2.50;;
35578;SDS011;21687;48.900;9.188;2023-05-10T06:32:12;3.30;;;2.53;;
35578;SDS011;21687;48.900;9.188;2023-05-10T06:34:39;4.30;;;2.80;;
35578;SDS011;21687;48.900;9.188;2023-05-10T06:37:05;2.47;;;2.27;;
35578;SDS011;21687;48.900;9.188;2023-05-10T06:39:31;2.73;;;2.53;;
35578;SDS011;21687;48.900;9.188;2023-05-10T06:41:57;3.17;;;2.67;;
35578;SDS011;21687;48.900;9.188;2023-05-10T06:44:23;2.03;;;1.93;;
35578;SDS011;21687;48.900;9.188;2023-05-10T06:46:50;4.27;;;2.23;;
35578;SDS011;21687;48.900;9.188;2023-05-10T06:49:17;2.37;;;2.17;;
35578;SDS011;21687;48.900;9.188;2023-05-10T06:51:43;3.67;;;2.13;;
35578;SDS011;21687;48.900;9.188;2023-05-10T06:54:10;2.93;;;2.20;;
35578;SDS011;21687;48.900;9.188;2023-05-10T06:56:36;2.37;;;2.17;;
35578;SDS011;21687;48.900;9.188;2023-05-10T06:59:02;1.70;;;1.60;;
35578;SDS011;21687;48.900;9.188;2023-05-10T07:01:28;5.30;;;1.80;;
35578;SDS011;21687;48.900;9.188;2023-05-10T07:03:55;1.77;;;1.67;;
35578;SDS011;21687;48.900;9.188;2023-05-10T07:06:21;1.83;;;1.67;;
35578;SDS011;21687;48.900;9.188;2023-05-10T07:08:47;1.67;;;1.57;;
35578;SDS011;21687;48.900;9.188;2023-05-10T07:11:14;1.57;;;1.43;;
35578;SDS011;21687;48.900;9.188;2023-05-10T07:13:40;2.70;;;1.50;;
35578;SDS011;21687;48.900;9.188;2023-05-10T07:16:09;5.07;;;1.60;;
35578;SDS011;21687;48.900;9.188;2023-05-10T07:18:35;1.60;;;1.50;;
35578;SDS011;21687;48.900;9.188;2023-05-10T07:21:01;2.03;;;1.70;;
35578;SDS011;21687;48.900;9.188;2023-05-10T07:23:28;2.73;;;1.60;;
35578;SDS011;21687;48.900;9.188;2023-05-10T07:25:55;1.60;;;1.50;;
35578;SDS011;21687;48.900;9.188;2023-05-10T07:28:22;3.10;;;1.70;;
35578;SDS011;21687;48.900;9.188;2023-05-10T07:30:51;2.30;;;1.60;;
35578;SDS011;21687;48.900;9.188;2023-05-10T07:33:17;1.57;;;1.47;;
35578;SDS011;21687;48.900;9.188;2023-05-10T07:35:44;1.63;;;1.53;;
35578;SDS011;21687;48.900;9.188;2023-05-10T07:38:10;1.73;;;1.63;;
35578;SDS011;21687;48.900;9.188;2023-05-10T07:40:36;1.70;;;1.60;;
35578;SDS011;21687;48.900;9.188;2023-05-10T07:43:04;1.83;;;1.63;;
35578;SDS011;21687;48.900;9.188;2023-05-10T07:45:30;1.63;;;1.50;;
35578;SDS011;21687;48.900;9.188;2023-05-10T07:47:56;2.27;;;1.37;;
35578;SDS011;21687;48.900;9.188;2023-05-10T07:50:22;3.50;;;1.60;;
35578;SDS011;21687;48.900;9.188;2023-05-10T07:52:49;1.40;;;1.30;;
35578;SDS011;21687;48.900;9.188;2023-05-10T07:55:15;3.90;;;1.20;;
35578;SDS011;21687;48.900;9.188;2023-05-10T07:57:43;1.20;;;1.03;;
35578;SDS011;21687;48.900;9.188;2023-05-10T08:00:11;1.50;;;1.40;;
35578;SDS011;21687;48.900;9.188;2023-05-10T08:02:38;1.93;;;1.00;;
35578;SDS011;21687;48.900;9.188;2023-05-10T08:05:05;1.30;;;1.20;;
35578;SDS011;21687;48.900;9.188;2023-05-10T08:07:32;1.00;;;0.90;;
35578;SDS011;21687;48.900;9.188;2023-05-10T08:09:58;3.20;;;0.80;;
35578;SDS011;21687;48.900;9.188;2023-05-10T08:12:25;1.13;;;0.80;;
35578;SDS011;21687;48.900;9.188;2023-05-10T08:14:51;1.73;;;0.90;;
35578;SDS011;21687;48.900;9.188;2023-05-10T08:17:17;2.40;;;0.80;;
35578;SDS011;21687;48.900;9.188;2023-05-10T08:19:43;0.90;;;0.60;;
35578;SDS011;21687;48.900;9.188;2023-05-10T08:22:09;1.27;;;0.80;;
35578;SDS011;21687;48.900;9.188;2023-05-10T08:24:36;1.20;;;1.10;;
35578;SDS011;21687;48.900;9.188;2023-05-10T08:27:04;1.07;;;0.97;;
35578;SDS011;21687;48.900;9.188;2023-05-10T08:29:30;1.13;;;1.03;;
35578;SDS011;21687;48.900;9.188;2023-05-10T08:31:57;0.93;;;0.90;;
35578;SDS011;21687;48.900;9.188;2023-05-10T08:34:23;0.80;;;0.80;;
35578;SDS011;21687;48.900;9.188;2023-05-10T08:36:50;1.17;;;1.07;;
35578;SDS011;21687;48.900;9.188;2023-05-10T08:39:16;0.87;;;0.87;;
35578;SDS011;21687;48.900;9.188;2023-05-10T08:41:43;0.90;;;0.90;;
35578;SDS011;21687;48.900;9.188;2023-05-10T08:44:11;0.87;;;0.73;;
35578;SDS011;21687;48.900;9.188;2023-05-10T08:46:38;0.80;;;0.80;;
35578;SDS011;21687;48.900;9.188;2023-05-10T08:49:09;1.00;;;1.00;;
35578;SDS011;21687;48.900;9.188;2023-05-10T08:51:42;2.53;;;0.80;;
35578;SDS011;21687;48.900;9.188;2023-05-10T08:54:19;1.67;;;0.90;;
35578;SDS011;21687;48.900;9.188;2023-05-10T08:56:47;0.90;;;0.90;;
35578;SDS011;21687;48.900;9.188;2023-05-10T08:59:13;0.80;;;0.80;;
35578;SDS011;21687;48.900;9.188;2023-05-10T09:01:40;0.80;;;0.80;;
35578;SDS011;21687;48.900;9.188;2023-05-10T09:04:09;0.60;;;0.60;;
35578;SDS011;21687;48.900;9.188;2023-05-10T09:06:37;0.50;;;0.50;;
35578;SDS011;21687;48.900;9.188;2023-05-10T09:09:03;2.47;;;0.70;;
35578;SDS011;21687;48.900;9.188;2023-05-10T09:11:29;0.80;;;0.80;;
35578;SDS011;21687;48.900;9.188;2023-05-10T09:13:56;1.03;;;0.70;;
35578;SDS011;21687;48.900;9.188;2023-05-10T09:16:23;0.70;;;0.70;;
35578;SDS011;21687;48.900;9.188;2023-05-10T09:18:49;0.50;;;0.50;;
35578;SDS011;21687;48.900;9.188;2023-05-10T09:21:15;1.10;;;1.00;;
35578;SDS011;21687;48.900;9.188;2023-05-10T09:23:42;2.00;;;0.90;;
35578;SDS011;21687;48.900;9.188;2023-05-10T09:26:10;0.80;;;0.80;;
35578;SDS011;21687;48.900;9.188;2023-05-10T09:31:22;2.07;;;0.80;;
35578;SDS011;21687;48.900;9.188;2023-05-10T09:33:50;1.50;;;0.90;;
35578;SDS011;21687;48.900;9.188;2023-05-10T09:36:17;1.10;;;1.00;;
35578;SDS011;21687;48.900;9.188;2023-05-10T09:38:47;0.50;;;0.50;;
35578;SDS011;21687;48.900;9.188;2023-05-10T09:41:21;0.90;;;0.90;;
35578;SDS011;21687;48.900;9.188;2023-05-10T09:43:48;0.83;;;0.83;;
35578;SDS011;21687;48.900;9.188;2023-05-10T09:46:15;1.90;;;0.97;;
35578;SDS011;21687;48.900;9.188;2023-05-10T09:48:42;1.37;;;0.80;;
35578;SDS011;21687;48.900;9.188;2023-05-10T09:51:10;1.93;;;0.77;;
35578;SDS011;21687;48.900;9.188;2023-05-10T09:53:48;1.23;;;0.70;;
35578;SDS011;21687;48.900;9.188;2023-05-10T09:56:33;2.30;;;1.00;;
35578;SDS011;21687;48.900;9.188;2023-05-10T09:59:04;0.87;;;0.80;;
35578;SDS011;21687;48.900;9.188;2023-05-10T10:01:31;1.67;;;0.93;;
35578;SDS011;21687;48.900;9.188;2023-05-10T10:03:58;0.80;;;0.80;;
35578;SDS011;21687;48.900;9.188;2023-05-10T10:06:27;1.17;;;0.80;;
35578;SDS011;21687;48.900;9.188;2023-05-10T10:08:53;0.77;;;0.77;;
35578;SDS011;21687;48.900;9.188;2023-05-10T10:11:21;0.60;;;0.60;;
35578;SDS011;21687;48.900;9.188;2023-05-10T10:13:49;1.80;;;1.10;;
35578;SDS011;21687;48.900;9.188;2023-05-10T10:16:15;0.90;;;0.90;;
35578;SDS011;21687;48.900;9.188;2023-05-10T10:18:41;2.53;;;0.70;;
35578;SDS011;21687;48.900;9.188;2023-05-10T10:21:08;0.67;;;0.67;;
35578;SDS011;21687;48.900;9.188;2023-05-10T10:23:35;0.80;;;0.80;;
35578;SDS011;21687;48.900;9.188;2023-05-10T10:26:02;0.97;;;0.77;;
35578;SDS011;21687;48.900;9.188;2023-05-10T10:28:33;0.90;;;0.90;;
35578;SDS011;21687;48.900;9.188;2023-05-10T10:31:17;1.60;;;0.70;;
35578;SDS011;21687;48.900;9.188;2023-05-10T10:36:32;0.70;;;0.70;;
35578;SDS011;21687;48.900;9.188;2023-05-10T10:39:10;1.00;;;0.90;;
35578;SDS011;21687;48.900;9.188;2023-05-10T10:41:48;1.00;;;0.90;;
35578;SDS011;21687;48.900;9.188;2023-05-10T10:54:56;1.50;;;0.73;;
35578;SDS011;21687;48.900;9.188;2023-05-10T11:00:25;0.90;;;0.90;;
35578;SDS011;21687;48.900;9.188;2023-05-10T11:02:54;0.77;;;0.77;;
35578;SDS011;21687;48.900;9.188;2023-05-10T11:08:10;1.17;;;1.07;;
35578;SDS011;21687;48.900;9.188;2023-05-10T11:10:39;1.60;;;0.90;;
35578;SDS011;21687;48.900;9.188;2023-05-10T11:13:13;1.10;;;1.00;;
35578;SDS011;21687;48.900;9.188;2023-05-10T11:15:40;1.67;;;0.80;;
35578;SDS011;21687;48.900;9.188;2023-05-10T11:20:58;0.90;;;0.70;;
35578;SDS011;21687;48.900;9.188;2023-05-10T11:23:31;0.93;;;0.87;;
35578;SDS011;21687;48.900;9.188;2023-05-10T11:26:12;1.03;;;0.70;;
35578;SDS011;21687;48.900;9.188;2023-05-10T11:28:45;0.93;;;0.93;;
35578;SDS011;21687;48.900;9.188;2023-05-10T11:31:14;3.63;;;1.20;;
35578;SDS011;21687;48.900;9.188;2023-05-10T11:33:51;0.77;;;0.77;;
35578;SDS011;21687;48.900;9.188;2023-05-10T11:36:22;3.10;;;0.90;;
35578;SDS011;21687;48.900;9.188;2023-05-10T11:38:52;1.00;;;1.00;;
35578;SDS011;21687;48.900;9.188;2023-05-10T11:41:39;2.73;;;1.00;;
35578;SDS011;21687;48.900;9.188;2023-05-10T11:44:05;1.57;;;0.83;;
35578;SDS011;21687;48.900;9.188;2023-05-10T11:46:34;1.33;;;0.90;;
35578;SDS011;21687;48.900;9.188;2023-05-10T11:49:01;0.90;;;0.90;;
35578;SDS011;21687;48.900;9.188;2023-05-10T11:51:35;1.90;;;1.10;;
35578;SDS011;21687;48.900;9.188;2023-05-10T11:54:05;1.63;;;1.20;;
35578;SDS011;21687;48.900;9.188;2023-05-10T11:56:34;1.60;;;1.30;;
35578;SDS011;21687;48.900;9.188;2023-05-10T11:59:01;1.80;;;1.10;;
35578;SDS011;21687;48.900;9.188;2023-05-10T12:01:28;2.57;;;1.47;;
35578;SDS011;21687;48.900;9.188;2023-05-10T12:03:56;1.50;;;1.40;;
35578;SDS011;21687;48.900;9.188;2023-05-10T12:06:26;2.40;;;1.40;;
35578;SDS011;21687;48.900;9.188;2023-05-10T12:08:54;2.00;;;1.03;;
35578;SDS011;21687;48.900;9.188;2023-05-10T12:11:23;2.47;;;1.40;;
35578;SDS011;21687;48.900;9.188;2023-05-10T12:13:51;1.33;;;1.10;;
35578;SDS011;21687;48.900;9.188;2023-05-10T12:16:19;1.30;;;1.20;;
35578;SDS011;21687;48.900;9.188;2023-05-10T12:18:53;1.13;;;1.03;;
35578;SDS011;21687;48.900;9.188;2023-05-10T12:21:24;2.90;;;1.50;;
35578;SDS011;21687;48.900;9.188;2023-05-10T12:23:59;1.60;;;1.50;;
35578;SDS011;21687;48.900;9.188;2023-05-10T12:26:27;2.40;;;1.57;;
35578;SDS011;21687;48.900;9.188;2023-05-10T12:28:54;4.83;;;1.50;;
35578;SDS011;21687;48.900;9.188;2023-05-10T12:31:59;1.37;;;0.90;;
35578;SDS011;21687;48.900;9.188;2023-05-10T12:34:32;1.97;;;1.20;;
35578;SDS011;21687;48.900;9.188;2023-05-10T12:37:01;2.10;;;0.90;;
35578;SDS011;21687;48.900;9.188;2023-05-10T12:39:38;1.10;;;1.00;;
35578;SDS011;21687;48.900;9.188;2023-05-10T12:42:06;1.80;;;1.00;;
35578;SDS011;21687;48.900;9.188;2023-05-10T12:44:32;4.00;;;1.00;;
35578;SDS011;21687;48.900;9.188;2023-05-10T12:46:58;1.47;;;0.97;;
35578;SDS011;21687;48.900;9.188;2023-05-10T12:49:25;1.07;;;0.97;;
35578;SDS011;21687;48.900;9.188;2023-05-10T12:51:51;1.13;;;0.87;;
35578;SDS011;21687;48.900;9.188;2023-05-10T12:54:17;1.57;;;0.90;;
35578;SDS011;21687;48.900;9.188;2023-05-10T12:56:43;1.90;;;0.80;;
35578;SDS011;21687;48.900;9.188;2023-05-10T12:59:10;1.20;;;0.87;;
35578;SDS011;21687;48.900;9.188;2023-05-10T13:01:36;1.43;;;0.73;;
35578;SDS011;21687;48.900;9.188;2023-05-10T13:04:02;2.30;;;1.00;;
35578;SDS011;21687;48.900;9.188;2023-05-10T13:06:29;1.50;;;1.10;;
35578;SDS011;21687;48.900;9.188;2023-05-10T13:08:55;1.63;;;1.00;;
35578;SDS011;21687;48.900;9.188;2023-05-10T13:11:22;2.07;;;0.90;;
35578;SDS011;21687;48.900;9.188;2023-05-10T13:13:48;1.10;;;0.80;;
35578;SDS011;21687;48.900;9.188;2023-05-10T13:16:15;1.43;;;1.00;;
35578;SDS011;21687;48.900;9.188;2023-05-10T13:18:41;1.50;;;1.00;;
35578;SDS011;21687;48.900;9.188;2023-05-10T13:21:07;0.90;;;0.90;;
35578;SDS011;21687;48.900;9.188;2023-05-10T13:23:34;0.83;;;0.83;;
35578;SDS011;21687;48.900;9.188;2023-05-10T13:26:00;1.13;;;0.97;;
35578;SDS011;21687;48.900;9.188;2023-05-10T13:28:26;1.20;;;1.10;;
35578;SDS011;21687;48.900;9.188;2023-05-10T13:30:52;1.83;;;0.90;;
35578;SDS011;21687;48.900;9.188;2023-05-10T13:33:19;1.47;;;0.90;;
35578;SDS011;21687;48.900;9.188;2023-05-10T13:35:45;1.00;;;0.90;;
35578;SDS011;21687;48.900;9.188;2023-05-10T13:38:17;1.37;;;0.97;;
35578;SDS011;21687;48.900;9.188;2023-05-10T13:40:43;2.00;;;1.20;;
35578;SDS011;21687;48.900;9.188;2023-05-10T13:43:09;1.13;;;0.80;;
35578;SDS011;21687;48.900;9.188;2023-05-10T13:45:36;3.30;;;1.43;;
35578;SDS011;21687;48.900;9.188;2023-05-10T13:48:02;1.13;;;1.00;;
35578;SDS011;21687;48.900;9.188;2023-05-10T13:50:28;2.67;;;1.20;;
35578;SDS011;21687;48.900;9.188;2023-05-10T13:52:55;0.90;;;0.90;;
35578;SDS011;21687;48.900;9.188;2023-05-10T13:55:21;4.47;;;1.30;;
35578;SDS011;21687;48.900;9.188;2023-05-10T13:57:47;1.50;;;1.10;;
35578;SDS011;21687;48.900;9.188;2023-05-10T14:00:16;0.80;;;0.80;;
35578;SDS011;21687;48.900;9.188;2023-05-10T14:02:45;1.13;;;0.90;;
35578;SDS011;21687;48.900;9.188;2023-05-10T14:05:12;1.07;;;0.83;;
35578;SDS011;21687;48.900;9.188;2023-05-10T14:07:42;2.03;;;0.97;;
35578;SDS011;21687;48.900;9.188;2023-05-10T14:10:08;1.60;;;0.93;;
35578;SDS011;21687;48.900;9.188;2023-05-10T14:12:35;1.33;;;1.17;;
35578;SDS011;21687;48.900;9.188;2023-05-10T14:15:01;1.20;;;1.10;;
35578;SDS011;21687;48.900;9.188;2023-05-10T14:17:30;2.23;;;1.27;;
35578;SDS011;21687;48.900;9.188;2023-05-10T14:19:57;1.40;;;0.90;;
35578;SDS011;21687;48.900;9.188;2023-05-10T14:22:23;3.43;;;1.10;;
35578;SDS011;21687;48.900;9.188;2023-05-10T14:24:50;2.93;;;1.00;;
35578;SDS011;21687;48.900;9.188;2023-05-10T14:27:16;1.93;;;0.87;;
35578;SDS011;21687;48.900;9.188;2023-05-10T14:29:43;2.63;;;0.90;;
35578;SDS011;21687;48.900;9.188;2023-05-10T14:32:09;1.37;;;1.00;;
35578;SDS011;21687;48.900;9.188;2023-05-10T14:34:35;0.90;;;0.90;;
35578;SDS011;21687;48.900;9.188;2023-05-10T14:37:02;0.97;;;0.90;;
35578;SDS011;21687;48.900;9.188;2023-05-10T14:39:29;4.00;;;1.10;;
35578;SDS011;21687;48.900;9.188;2023-05-10T14:41:56;2.53;;;0.90;;
35578;SDS011;21687;48.900;9.188;2023-05-10T14:44:23;1.13;;;1.03;;
35578;SDS011;21687;48.900;9.188;2023-05-10T14:46:50;3.93;;;1.00;;
35578;SDS011;21687;48.900;9.188;2023-05-10T14:49:16;0.60;;;0.60;;
35578;SDS011;21687;48.900;9.188;2023-05-10T14:51:43;1.10;;;1.00;;
35578;SDS011;21687;48.900;9.188;2023-05-10T14:54:10;2.87;;;0.90;;
35578;SDS011;21687;48.900;9.188;2023-05-10T14:56:36;0.67;;;0.67;;
35578;SDS011;21687;48.900;9.188;2023-05-10T14:59:06;0.83;;;0.83;;
35578;SDS011;21687;48.900;9.188;2023-05-10T15:01:32;1.00;;;1.00;;
35578;SDS011;21687;48.900;9.188;2023-05-10T15:04:02;0.90;;;0.90;;
35578;SDS011;21687;48.900;9.188;2023-05-10T15:06:32;1.03;;;0.97;;
35578;SDS011;21687;48.900;9.188;2023-05-10T15:09:00;0.83;;;0.80;;
35578;SDS011;21687;48.900;9.188;2023-05-10T15:11:27;4.00;;;1.87;;
35578;SDS011;21687;48.900;9.188;2023-05-10T15:13:54;1.00;;;0.90;;
35578;SDS011;21687;48.900;9.188;2023-05-10T15:16:20;1.33;;;1.23;;
35578;SDS011;21687;48.900;9.188;2023-05-10T15:18:46;2.77;;;1.20;;
35578;SDS011;21687;48.900;9.188;2023-05-10T15:21:13;1.33;;;0.87;;
35578;SDS011;21687;48.900;9.188;2023-05-10T15:23:39;1.03;;;1.00;;
35578;SDS011;21687;48.900;9.188;2023-05-10T15:26:05;1.93;;;1.03;;
35578;SDS011;21687;48.900;9.188;2023-05-10T15:28:32;2.20;;;1.07;;
35578;SDS011;21687;48.900;9.188;2023-05-10T15:30:59;0.80;;;0.80;;
35578;SDS011;21687;48.900;9.188;2023-05-10T15:33:25;0.77;;;0.77;;
35578;SDS011;21687;48.900;9.188;2023-05-10T15:35:52;1.50;;;1.00;;
35578;SDS011;21687;48.900;9.188;2023-05-10T15:38:19;2.23;;;1.60;;
35578;SDS011;21687;48.900;9.188;2023-05-10T15:40:45;0.93;;;0.90;;
35578;SDS011;21687;48.900;9.188;2023-05-10T15:43:15;3.50;;;1.10;;